createdAt,value
2017-04-22T00:00:09.114Z,1.60
2017-04-22T00:01:07.551Z,1.60
2017-04-22T00:02:06.789Z,1.60
2017-04-22T00:03:05.322Z,1.60
2017-04-22T00:04:04.486Z,1.70
2017-04-22T00:05:02.978Z,1.70
2017-04-22T00:06:04.587Z,1.70
2017-04-22T00:07:03.156Z,1.80
2017-04-22T00:08:01.604Z,1.80
2017-04-22T00:09:00.021Z,1.80
2017-04-22T00:09:58.445Z,1.80
2017-04-22T00:10:57.599Z,1.80
2017-04-22T00:11:56.855Z,1.90
2017-04-22T00:12:55.265Z,1.90
2017-04-22T00:13:53.757Z,1.90
2017-04-22T00:14:52.245Z,1.90
2017-04-22T00:15:51.048Z,1.90
2017-04-22T00:16:49.525Z,1.80
2017-04-22T00:17:47.981Z,1.90
2017-04-22T00:18:46.404Z,1.90
2017-04-22T00:19:44.979Z,1.90
2017-04-22T00:20:43.845Z,1.80
2017-04-22T00:21:43.062Z,1.70
2017-04-22T00:22:41.488Z,1.70
2017-04-22T00:23:40.710Z,1.70
2017-04-22T00:24:39.875Z,1.70
2017-04-22T00:25:38.323Z,1.70
2017-04-22T00:26:37.540Z,1.60
2017-04-22T00:27:36.762Z,1.60
2017-04-22T00:28:35.216Z,1.60
2017-04-22T00:29:33.988Z,1.60
2017-04-22T00:30:32.402Z,1.60
2017-04-22T00:31:30.887Z,1.60
2017-04-22T00:32:29.347Z,1.60
2017-04-22T00:33:27.819Z,1.50
2017-04-22T00:34:26.294Z,1.50
2017-04-22T00:35:24.705Z,1.60
2017-04-22T00:36:23.618Z,1.60
2017-04-22T00:37:22.048Z,1.60
2017-04-22T00:38:20.497Z,1.60
2017-04-22T00:39:19.733Z,1.50
2017-04-22T00:40:18.182Z,1.50
2017-04-22T00:41:16.603Z,1.50
2017-04-22T00:42:15.035Z,1.40
2017-04-22T00:43:13.468Z,1.40
2017-04-22T00:44:12.745Z,1.40
2017-04-22T00:45:11.238Z,1.40
2017-04-22T00:47:08.629Z,1.40
2017-04-22T00:48:07.115Z,1.40
2017-04-22T00:49:05.556Z,1.30
2017-04-22T00:50:04.045Z,1.40
2017-04-22T00:51:02.590Z,1.40
2017-04-22T00:52:01.087Z,1.30
2017-04-22T00:52:59.534Z,1.30
2017-04-22T00:53:57.999Z,1.20
2017-04-22T00:54:56.520Z,1.20
2017-04-22T00:55:55.117Z,1.10
2017-04-22T00:56:54.336Z,1.00
2017-04-22T00:57:52.743Z,1.10
2017-04-22T00:58:51.224Z,1.10
2017-04-22T00:59:59.252Z,1.10
2017-04-22T01:00:58.437Z,1.00
2017-04-22T01:01:57.661Z,1.00
2017-04-22T01:02:56.893Z,1.00
2017-04-22T01:03:55.411Z,1.00
2017-04-22T01:04:53.886Z,1.00
2017-04-22T01:05:52.394Z,1.00
2017-04-22T01:06:50.872Z,1.00
2017-04-22T01:07:49.337Z,1.00
2017-04-22T01:08:47.795Z,1.00
2017-04-22T01:09:46.278Z,1.00
2017-04-22T01:10:44.881Z,1.00
2017-04-22T01:11:44.105Z,0.90
2017-04-22T01:12:42.551Z,0.90
2017-04-22T01:13:40.969Z,1.00
2017-04-22T01:14:39.401Z,1.00
2017-04-22T01:15:38.536Z,1.00
2017-04-22T01:16:37.058Z,1.00
2017-04-22T01:17:35.794Z,1.00
2017-04-22T01:18:34.242Z,1.00
2017-04-22T01:19:32.676Z,1.00
2017-04-22T01:20:31.225Z,1.00
2017-04-22T01:21:30.414Z,0.90
2017-04-22T01:22:29.649Z,0.90
2017-04-22T01:23:28.135Z,0.90
2017-04-22T01:24:26.555Z,0.90
2017-04-22T01:25:25.729Z,0.90
2017-04-22T01:26:24.918Z,0.90
2017-04-22T01:27:25.022Z,0.90
2017-04-22T01:28:23.463Z,0.90
2017-04-22T01:29:21.865Z,0.90
2017-04-22T01:30:20.352Z,0.90
2017-04-22T01:31:18.760Z,0.90
2017-04-22T01:32:17.190Z,0.90
2017-04-22T01:33:15.669Z,0.90
2017-04-22T01:34:14.117Z,0.90
2017-04-22T01:35:13.303Z,0.90
2017-04-22T01:36:12.463Z,0.90
2017-04-22T01:37:10.944Z,1.00
2017-04-22T01:38:09.439Z,1.00
2017-04-22T01:39:08.675Z,0.90
2017-04-22T01:40:07.169Z,1.00
2017-04-22T01:41:05.604Z,1.00
2017-04-22T01:42:04.116Z,1.00
2017-04-22T01:43:02.602Z,1.00
2017-04-22T01:44:01.073Z,1.00
2017-04-22T01:45:00.310Z,0.90
2017-04-22T01:45:58.858Z,0.90
2017-04-22T01:46:57.332Z,0.90
2017-04-22T01:47:55.862Z,0.80
2017-04-22T01:48:54.253Z,0.90
2017-04-22T01:49:53.496Z,0.80
2017-04-22T01:50:51.930Z,0.80
2017-04-22T01:51:50.391Z,0.80
2017-04-22T01:52:49.655Z,0.80
2017-04-22T01:53:48.118Z,0.80
2017-04-22T01:54:46.555Z,0.80
2017-04-22T01:55:44.973Z,0.70
2017-04-22T01:56:44.177Z,0.70
2017-04-22T01:57:43.367Z,0.80
2017-04-22T01:58:41.818Z,0.80
2017-04-22T01:59:40.343Z,0.80
2017-04-22T02:00:38.855Z,0.80
2017-04-22T02:01:37.302Z,0.80
2017-04-22T02:02:41.089Z,0.90
2017-04-22T02:03:39.567Z,0.90
2017-04-22T02:04:38.049Z,0.90
2017-04-22T02:05:36.524Z,0.90
2017-04-22T02:06:34.963Z,0.90
2017-04-22T02:07:33.578Z,0.90
2017-04-22T02:08:32.455Z,1.00
2017-04-22T02:09:30.922Z,1.00
2017-04-22T02:10:29.350Z,1.00
2017-04-22T02:11:27.802Z,1.10
2017-04-22T02:12:26.376Z,1.10
2017-04-22T02:13:24.775Z,1.10
2017-04-22T02:14:23.230Z,1.20
2017-04-22T02:15:21.676Z,1.20
2017-04-22T02:16:31.054Z,1.20
2017-04-22T02:17:29.595Z,1.20
2017-04-22T02:18:27.997Z,1.20
2017-04-22T02:19:26.394Z,1.20
2017-04-22T02:20:25.585Z,1.30
2017-04-22T02:21:24.778Z,1.20
2017-04-22T02:22:23.201Z,1.30
2017-04-22T02:23:21.663Z,1.20
2017-04-22T02:24:20.178Z,1.20
2017-04-22T02:25:19.430Z,1.20
2017-04-22T02:26:17.868Z,1.30
2017-04-22T02:28:19.772Z,1.20
2017-04-22T02:29:18.208Z,1.30
2017-04-22T02:30:16.775Z,1.30
2017-04-22T02:31:15.233Z,1.20
2017-04-22T02:32:14.384Z,1.20
2017-04-22T02:33:12.804Z,1.20
2017-04-22T02:34:11.264Z,1.30
2017-04-22T02:35:09.667Z,1.30
2017-04-22T02:36:08.063Z,1.20
2017-04-22T02:37:06.517Z,1.20
2017-04-22T02:38:05.088Z,1.30
2017-04-22T02:39:03.825Z,1.30
2017-04-22T02:40:02.267Z,1.30
2017-04-22T02:41:00.712Z,1.20
2017-04-22T02:41:59.144Z,1.20
2017-04-22T02:42:57.971Z,1.20
2017-04-22T02:43:56.376Z,1.20
2017-04-22T02:44:54.800Z,1.30
2017-04-22T02:45:53.238Z,1.30
2017-04-22T02:46:52.389Z,1.30
2017-04-22T02:47:50.801Z,1.30
2017-04-22T02:48:49.327Z,1.30
2017-04-22T02:49:47.773Z,1.30
2017-04-22T02:50:46.236Z,1.30
2017-04-22T02:51:44.689Z,1.30
2017-04-22T02:52:43.806Z,1.30
2017-04-22T02:53:42.976Z,1.30
2017-04-22T02:54:42.947Z,1.20
2017-04-22T02:55:41.423Z,1.20
2017-04-22T02:56:39.919Z,1.20
2017-04-22T02:57:38.349Z,1.20
2017-04-22T02:58:36.778Z,1.20
2017-04-22T02:59:35.196Z,1.20
2017-04-22T03:00:33.706Z,1.20
2017-04-22T03:01:32.249Z,1.30
2017-04-22T03:02:31.434Z,1.20
2017-04-22T03:03:29.902Z,1.10
2017-04-22T03:04:28.317Z,1.10
2017-04-22T03:05:26.726Z,1.10
2017-04-22T03:06:25.226Z,1.10
2017-04-22T03:07:23.697Z,1.10
2017-04-22T03:08:22.189Z,1.20
2017-04-22T03:09:20.585Z,1.20
2017-04-22T03:10:19.013Z,1.20
2017-04-22T03:11:17.451Z,1.20
2017-04-22T03:12:15.875Z,1.20
2017-04-22T03:13:14.306Z,1.10
2017-04-22T03:14:12.767Z,1.00
2017-04-22T03:15:11.215Z,0.90
2017-04-22T03:16:09.712Z,0.80
2017-04-22T03:17:08.123Z,0.80
2017-04-22T03:18:06.567Z,0.80
2017-04-22T03:19:04.978Z,0.80
2017-04-22T03:20:03.452Z,0.80
2017-04-22T03:21:01.917Z,0.70
2017-04-22T03:22:00.488Z,0.60
2017-04-22T03:22:59.236Z,0.60
2017-04-22T03:23:57.663Z,0.50
2017-04-22T03:24:56.819Z,0.50
2017-04-22T03:25:55.225Z,0.60
2017-04-22T03:26:53.664Z,0.60
2017-04-22T03:27:52.076Z,0.60
2017-04-22T03:28:50.473Z,0.50
2017-04-22T03:29:48.913Z,0.50
2017-04-22T03:30:47.361Z,0.50
2017-04-22T03:31:46.644Z,0.50
2017-04-22T03:32:45.818Z,0.50
2017-04-22T03:33:44.586Z,0.50
2017-04-22T03:34:43.015Z,0.50
2017-04-22T03:35:41.466Z,0.50
2017-04-22T03:36:39.904Z,0.40
2017-04-22T03:37:38.322Z,0.40
2017-04-22T03:38:37.053Z,0.30
2017-04-22T03:39:35.448Z,0.30
2017-04-22T03:40:34.633Z,0.30
2017-04-22T03:41:34.268Z,0.40
2017-04-22T03:42:32.691Z,0.50
2017-04-22T03:43:31.861Z,0.40
2017-04-22T03:44:30.350Z,0.40
2017-04-22T03:45:28.797Z,0.50
2017-04-22T03:46:27.226Z,0.50
2017-04-22T03:47:25.639Z,0.60
2017-04-22T03:48:24.069Z,0.60
2017-04-22T03:49:22.484Z,0.70
2017-04-22T03:50:20.907Z,0.70
2017-04-22T03:51:19.396Z,0.80
2017-04-22T03:52:17.834Z,0.80
2017-04-22T03:53:16.281Z,0.80
2017-04-22T03:54:14.698Z,0.80
2017-04-22T03:55:13.194Z,0.80
2017-04-22T03:56:11.626Z,0.80
2017-04-22T03:57:10.026Z,0.80
2017-04-22T03:58:08.464Z,0.80
2017-04-22T03:59:06.875Z,0.80
2017-04-22T04:00:05.627Z,0.80
2017-04-22T04:01:04.113Z,0.80
2017-04-22T04:02:02.601Z,0.70
2017-04-22T04:03:01.078Z,0.50
2017-04-22T04:03:59.506Z,0.50
2017-04-22T04:04:57.898Z,0.50
2017-04-22T04:05:56.315Z,0.50
2017-04-22T04:06:54.741Z,0.50
2017-04-22T04:08:52.075Z,0.70
2017-04-22T04:09:50.551Z,0.70
2017-04-22T04:10:49.038Z,0.70
2017-04-22T04:11:47.460Z,0.70
2017-04-22T04:12:45.879Z,0.70
2017-04-22T04:13:44.344Z,0.70
2017-04-22T04:14:42.754Z,0.70
2017-04-22T04:15:41.208Z,0.70
2017-04-22T04:16:40.392Z,0.70
2017-04-22T04:17:39.609Z,0.60
2017-04-22T04:18:38.025Z,0.70
2017-04-22T04:19:36.483Z,0.70
2017-04-22T04:20:35.251Z,0.70
2017-04-22T04:21:33.675Z,0.70
2017-04-22T04:22:32.835Z,0.70
2017-04-22T04:23:31.262Z,0.70
2017-04-22T04:24:29.690Z,0.70
2017-04-22T04:25:28.132Z,0.70
2017-04-22T04:26:31.987Z,0.80
2017-04-22T04:27:30.439Z,0.80
2017-04-22T04:28:29.559Z,0.80
2017-04-22T04:29:27.959Z,0.80
2017-04-22T04:30:26.418Z,0.80
2017-04-22T04:31:24.835Z,0.90
2017-04-22T04:32:24.013Z,0.90
2017-04-22T04:33:23.231Z,0.90
2017-04-22T04:34:21.656Z,0.90
2017-04-22T04:35:20.080Z,0.90
2017-04-22T04:36:18.506Z,0.80
2017-04-22T04:37:17.669Z,0.80
2017-04-22T04:38:16.119Z,0.80
2017-04-22T04:39:14.583Z,0.90
2017-04-22T04:40:13.031Z,0.90
2017-04-22T04:41:11.490Z,1.00
2017-04-22T04:42:10.654Z,1.10
2017-04-22T04:43:09.116Z,1.10
2017-04-22T04:44:07.584Z,0.90
2017-04-22T04:45:06.033Z,0.80
2017-04-22T04:46:04.469Z,0.70
2017-04-22T04:47:02.897Z,0.50
2017-04-22T04:48:01.288Z,0.50
2017-04-22T04:49:00.417Z,0.40
2017-04-22T04:49:58.806Z,0.40
2017-04-22T04:50:57.294Z,0.40
2017-04-22T04:51:55.698Z,0.50
2017-04-22T04:52:54.100Z,0.50
2017-04-22T04:53:52.519Z,0.50
2017-04-22T04:54:51.673Z,0.60
2017-04-22T04:55:50.103Z,0.70
2017-04-22T04:56:49.250Z,0.80
2017-04-22T04:57:47.663Z,0.90
2017-04-22T04:58:46.088Z,1.00
2017-04-22T04:59:44.566Z,1.10
2017-04-22T05:00:43.029Z,1.10
2017-04-22T05:01:41.426Z,1.30
2017-04-22T05:02:39.887Z,1.40
2017-04-22T05:03:39.072Z,1.50
2017-04-22T05:04:38.588Z,1.60
2017-04-22T05:05:37.072Z,1.70
2017-04-22T05:06:35.488Z,1.80
2017-04-22T05:07:33.904Z,1.80
2017-04-22T05:08:32.369Z,1.90
2017-04-22T05:09:31.143Z,1.90
2017-04-22T05:10:29.548Z,2.00
2017-04-22T05:11:27.952Z,2.00
2017-04-22T05:12:26.367Z,2.00
2017-04-22T05:13:24.746Z,2.10
2017-04-22T05:14:23.178Z,2.20
2017-04-22T05:15:22.315Z,2.20
2017-04-22T05:16:20.722Z,2.30
2017-04-22T05:17:19.891Z,2.30
2017-04-22T05:18:18.324Z,2.30
2017-04-22T05:19:16.776Z,2.40
2017-04-22T05:20:15.227Z,2.50
2017-04-22T05:21:14.372Z,2.50
2017-04-22T05:22:12.772Z,2.50
2017-04-22T05:23:11.918Z,2.60
2017-04-22T05:24:10.346Z,2.60
2017-04-22T05:25:09.492Z,2.60
2017-04-22T05:26:08.014Z,2.70
2017-04-22T05:27:07.160Z,2.70
2017-04-22T05:28:05.526Z,2.80
2017-04-22T05:29:03.969Z,2.80
2017-04-22T05:30:02.390Z,2.80
2017-04-22T05:31:02.069Z,2.80
2017-04-22T05:32:06.921Z,2.80
2017-04-22T05:33:05.418Z,2.80
2017-04-22T05:34:03.838Z,2.80
2017-04-22T05:35:02.251Z,2.80
2017-04-22T05:36:00.684Z,2.70
2017-04-22T05:37:01.166Z,2.80
2017-04-22T05:38:02.979Z,2.80
2017-04-22T05:39:01.397Z,2.80
2017-04-22T05:40:01.301Z,2.80
2017-04-22T05:41:00.288Z,2.80
2017-04-22T05:41:59.143Z,2.80
2017-04-22T05:42:57.570Z,2.80
2017-04-22T05:43:56.046Z,2.90
2017-04-22T05:44:54.890Z,2.90
2017-04-22T05:45:53.291Z,2.90
2017-04-22T05:46:52.516Z,2.90
2017-04-22T05:47:50.955Z,2.90
2017-04-22T05:48:49.366Z,3.00
2017-04-22T05:49:47.785Z,3.00
2017-04-22T05:50:47.178Z,3.00
2017-04-22T05:51:46.356Z,3.00
2017-04-22T05:52:44.817Z,3.10
2017-04-22T05:53:43.266Z,3.10
2017-04-22T05:54:41.697Z,3.20
2017-04-22T05:55:40.176Z,3.30
2017-04-22T05:56:38.585Z,3.30
2017-04-22T05:57:37.852Z,3.30
2017-04-22T05:58:36.294Z,3.40
2017-04-22T05:59:34.713Z,3.50
2017-04-22T06:00:36.003Z,3.50
2017-04-22T06:01:34.451Z,3.60
2017-04-22T06:02:34.593Z,3.70
2017-04-22T06:03:33.586Z,3.80
2017-04-22T06:04:37.947Z,3.80
2017-04-22T06:05:37.087Z,3.80
2017-04-22T06:06:35.527Z,3.90
2017-04-22T06:07:34.602Z,3.90
2017-04-22T06:08:33.439Z,3.90
2017-04-22T06:09:31.866Z,4.00
2017-04-22T06:10:30.272Z,4.00
2017-04-22T06:11:28.708Z,4.00
2017-04-22T06:12:27.121Z,4.00
2017-04-22T06:13:25.618Z,4.10
2017-04-22T06:14:24.810Z,4.10
2017-04-22T06:15:23.968Z,4.20
2017-04-22T06:16:22.503Z,4.20
2017-04-22T06:17:20.916Z,4.20
2017-04-22T06:18:19.314Z,4.30
2017-04-22T06:19:17.786Z,4.30
2017-04-22T06:20:24.454Z,4.30
2017-04-22T06:21:22.919Z,4.40
2017-04-22T06:22:23.087Z,4.40
2017-04-22T06:23:21.512Z,4.50
2017-04-22T06:24:19.943Z,4.50
2017-04-22T06:25:18.455Z,4.60
2017-04-22T06:26:16.886Z,4.60
2017-04-22T06:27:15.303Z,4.60
2017-04-22T06:28:14.043Z,4.60
2017-04-22T06:29:12.664Z,4.70
2017-04-22T06:30:11.060Z,4.70
2017-04-22T06:31:10.499Z,4.70
2017-04-22T06:32:09.006Z,4.80
2017-04-22T06:33:07.414Z,4.80
2017-04-22T06:34:05.846Z,4.90
2017-04-22T06:35:04.357Z,4.90
2017-04-22T06:36:03.501Z,4.90
2017-04-22T06:37:01.974Z,4.90
2017-04-22T06:38:00.434Z,5.00
2017-04-22T06:38:58.875Z,5.00
2017-04-22T06:39:57.296Z,5.00
2017-04-22T06:40:55.685Z,5.00
2017-04-22T06:41:54.169Z,5.00
2017-04-22T06:42:52.598Z,5.00
2017-04-22T06:43:51.072Z,5.10
2017-04-22T06:44:50.146Z,5.10
2017-04-22T06:45:48.571Z,5.10
2017-04-22T06:46:47.802Z,5.10
2017-04-22T06:47:46.212Z,5.10
2017-04-22T06:48:44.636Z,5.20
2017-04-22T06:49:43.081Z,5.20
2017-04-22T06:50:41.483Z,5.20
2017-04-22T06:51:39.879Z,5.20
2017-04-22T06:52:38.346Z,5.30
2017-04-22T06:53:36.742Z,5.30
2017-04-22T06:54:35.162Z,5.40
2017-04-22T06:55:33.578Z,5.40
2017-04-22T06:56:32.015Z,5.50
2017-04-22T06:57:30.435Z,5.50
2017-04-22T06:58:28.946Z,5.50
2017-04-22T06:59:27.460Z,5.60
2017-04-22T07:00:26.735Z,5.70
2017-04-22T07:01:25.162Z,5.70
2017-04-22T07:02:43.702Z,5.80
2017-04-22T07:03:42.201Z,5.80
2017-04-22T07:04:40.635Z,5.90
2017-04-22T07:05:39.380Z,5.90
2017-04-22T07:06:38.607Z,5.90
2017-04-22T07:07:37.120Z,5.90
2017-04-22T07:08:35.569Z,5.90
2017-04-22T07:09:34.099Z,5.90
2017-04-22T07:10:32.536Z,5.90
2017-04-22T07:11:30.980Z,5.90
2017-04-22T07:12:29.477Z,5.90
2017-04-22T07:13:27.930Z,5.90
2017-04-22T07:14:26.401Z,5.80
2017-04-22T07:15:24.955Z,5.80
2017-04-22T07:16:23.526Z,5.80
2017-04-22T07:17:21.950Z,5.80
2017-04-22T07:18:21.101Z,5.80
2017-04-22T07:19:19.512Z,5.80
2017-04-22T07:20:18.749Z,5.80
2017-04-22T07:21:17.217Z,5.90
2017-04-22T07:22:15.668Z,6.00
2017-04-22T07:23:14.331Z,5.90
2017-04-22T07:24:12.845Z,5.90
2017-04-22T07:25:11.339Z,6.00
2017-04-22T07:26:09.739Z,6.00
2017-04-22T07:27:08.227Z,6.00
2017-04-22T07:28:06.703Z,6.00
2017-04-22T07:29:05.164Z,6.10
2017-04-22T07:30:03.580Z,6.10
2017-04-22T07:31:02.077Z,6.00
2017-04-22T07:32:01.308Z,6.00
2017-04-22T07:32:59.800Z,6.00
2017-04-22T07:33:58.362Z,6.00
2017-04-22T07:34:56.839Z,6.00
2017-04-22T07:36:03.294Z,6.10
2017-04-22T07:37:01.772Z,6.10
2017-04-22T07:38:00.309Z,6.10
2017-04-22T07:38:58.742Z,6.10
2017-04-22T07:39:57.928Z,6.10
2017-04-22T07:40:56.362Z,6.20
2017-04-22T07:41:54.819Z,6.10
2017-04-22T07:42:53.222Z,6.10
2017-04-22T07:43:51.747Z,6.10
2017-04-22T07:44:50.184Z,6.20
2017-04-22T07:45:49.703Z,6.20
2017-04-22T07:46:48.162Z,6.20
2017-04-22T07:47:46.630Z,6.20
2017-04-22T07:48:45.797Z,6.20
2017-04-22T07:49:44.302Z,6.30
2017-04-22T07:50:42.775Z,6.30
2017-04-22T07:51:41.241Z,6.30
2017-04-22T07:52:39.698Z,6.30
2017-04-22T07:53:38.076Z,6.40
2017-04-22T07:54:37.298Z,6.40
2017-04-22T07:55:35.833Z,6.40
2017-04-22T07:56:35.091Z,6.40
2017-04-22T07:57:33.587Z,6.50
2017-04-22T07:58:32.797Z,6.40
2017-04-22T07:59:31.268Z,6.40
2017-04-22T08:00:29.684Z,6.50
2017-04-22T08:01:28.112Z,6.40
2017-04-22T08:02:26.634Z,6.50
2017-04-22T08:03:25.143Z,6.50
2017-04-22T08:04:23.747Z,6.50
2017-04-22T08:05:22.199Z,6.50
2017-04-22T08:06:21.093Z,6.50
2017-04-22T08:07:19.514Z,6.50
2017-04-22T08:08:17.995Z,6.50
2017-04-22T08:09:16.728Z,6.50
2017-04-22T08:10:15.242Z,6.60
2017-04-22T08:11:24.067Z,6.50
2017-04-22T08:12:22.514Z,6.60
2017-04-22T08:13:20.905Z,6.60
2017-04-22T08:14:19.323Z,6.60
2017-04-22T08:15:17.803Z,6.60
2017-04-22T08:16:16.241Z,6.70
2017-04-22T08:17:15.396Z,6.70
2017-04-22T08:18:14.584Z,6.70
2017-04-22T08:19:13.725Z,6.80
2017-04-22T08:20:12.168Z,6.80
2017-04-22T08:21:11.214Z,6.80
2017-04-22T08:22:10.382Z,6.80
2017-04-22T08:23:08.883Z,6.90
2017-04-22T08:24:08.061Z,6.90
2017-04-22T08:25:06.551Z,6.90
2017-04-22T08:26:04.976Z,6.90
2017-04-22T08:27:03.423Z,7.00
2017-04-22T08:28:02.145Z,6.90
2017-04-22T08:29:00.866Z,7.00
2017-04-22T08:29:59.259Z,7.00
2017-04-22T08:30:57.690Z,7.00
2017-04-22T08:31:56.363Z,7.00
2017-04-22T08:32:54.788Z,7.00
2017-04-22T08:33:53.225Z,7.00
2017-04-22T08:34:52.454Z,7.10
2017-04-22T08:35:50.875Z,7.10
2017-04-22T08:36:49.622Z,7.10
2017-04-22T08:37:48.057Z,7.10
2017-04-22T08:38:46.536Z,7.10
2017-04-22T08:39:44.956Z,7.20
2017-04-22T08:40:43.475Z,7.20
2017-04-22T08:41:41.921Z,7.20
2017-04-22T08:42:40.382Z,7.20
2017-04-22T08:43:39.542Z,7.20
2017-04-22T08:44:37.944Z,7.20
2017-04-22T08:45:36.738Z,7.20
2017-04-22T08:46:35.299Z,7.20
2017-04-22T08:47:34.476Z,7.20
2017-04-22T08:48:33.031Z,7.20
2017-04-22T08:49:31.469Z,7.20
2017-04-22T08:50:30.659Z,7.20
2017-04-22T08:51:29.810Z,7.20
2017-04-22T08:52:28.276Z,7.30
2017-04-22T08:53:26.697Z,7.30
2017-04-22T08:54:25.861Z,7.30
2017-04-22T08:55:24.272Z,7.30
2017-04-22T08:56:22.702Z,7.40
2017-04-22T08:57:21.116Z,7.40
2017-04-22T08:58:19.553Z,7.40
2017-04-22T08:59:18.751Z,7.50
2017-04-22T09:00:17.233Z,7.50
2017-04-22T09:01:15.804Z,7.60
2017-04-22T09:02:14.225Z,7.60
2017-04-22T09:03:12.632Z,7.60
2017-04-22T09:04:11.791Z,7.60
2017-04-22T09:05:10.227Z,7.60
2017-04-22T09:06:08.654Z,7.60
2017-04-22T09:07:07.816Z,7.70
2017-04-22T09:08:06.279Z,7.70
2017-04-22T09:09:05.230Z,7.70
2017-04-22T09:10:03.655Z,7.70
2017-04-22T09:11:02.819Z,7.70
2017-04-22T09:12:01.235Z,7.80
2017-04-22T09:12:59.717Z,7.80
2017-04-22T09:13:58.120Z,7.80
2017-04-22T09:14:56.531Z,7.80
2017-04-22T09:15:55.724Z,7.80
2017-04-22T09:16:54.957Z,7.80
2017-04-22T09:17:53.467Z,7.90
2017-04-22T09:18:51.927Z,7.90
2017-04-22T09:19:50.368Z,7.90
2017-04-22T09:20:48.868Z,8.00
2017-04-22T09:21:47.326Z,8.00
2017-04-22T09:22:45.762Z,8.00
2017-04-22T09:23:44.227Z,8.10
2017-04-22T09:24:42.680Z,8.20
2017-04-22T09:25:41.907Z,8.20
2017-04-22T09:26:41.266Z,8.20
2017-04-22T09:27:42.208Z,8.20
2017-04-22T09:28:40.708Z,8.20
2017-04-22T09:29:39.212Z,8.20
2017-04-22T09:30:37.664Z,8.20
2017-04-22T09:31:36.080Z,8.20
2017-04-22T09:32:34.547Z,8.20
2017-04-22T09:33:40.649Z,8.30
2017-04-22T09:34:39.131Z,8.30
2017-04-22T09:35:37.569Z,8.40
2017-04-22T09:36:50.154Z,8.40
2017-04-22T09:39:26.603Z,8.40
2017-04-22T09:40:25.123Z,8.40
2017-04-22T09:41:23.597Z,8.40
2017-04-22T09:43:08.053Z,8.50
2017-04-22T09:44:06.527Z,8.50
2017-04-22T09:45:05.003Z,8.50
2017-04-22T09:46:21.159Z,8.60
2017-04-22T09:47:19.625Z,8.50
2017-04-22T09:48:18.588Z,8.50
2017-04-22T09:49:17.126Z,8.60
2017-04-22T09:50:15.638Z,8.50
2017-04-22T09:51:14.087Z,8.50
2017-04-22T09:52:12.561Z,8.50
2017-04-22T09:53:11.071Z,8.50
2017-04-22T09:54:09.549Z,8.50
2017-04-22T09:55:08.067Z,8.50
2017-04-22T09:56:06.550Z,8.50
2017-04-22T09:57:04.985Z,8.60
2017-04-22T09:58:03.498Z,8.60
2017-04-22T09:59:02.033Z,8.70
2017-04-22T10:00:01.264Z,8.70
2017-04-22T10:00:59.810Z,8.70
2017-04-22T10:01:59.113Z,8.70
2017-04-22T10:02:57.596Z,8.70
2017-04-22T10:03:56.826Z,8.70
2017-04-22T10:04:55.413Z,8.80
2017-04-22T10:05:53.875Z,8.80
2017-04-22T10:06:52.356Z,8.90
2017-04-22T10:07:51.598Z,8.90
2017-04-22T10:08:50.118Z,8.90
2017-04-22T10:09:48.614Z,8.90
2017-04-22T10:10:47.092Z,8.90
2017-04-22T10:11:45.557Z,9.00
2017-04-22T10:12:43.989Z,9.00
2017-04-22T10:13:42.450Z,9.00
2017-04-22T10:14:40.925Z,9.00
2017-04-22T10:15:39.351Z,9.10
2017-04-22T10:16:37.817Z,9.10
2017-04-22T10:17:37.068Z,9.10
2017-04-22T10:18:35.607Z,9.10
2017-04-22T10:19:34.079Z,9.10
2017-04-22T10:20:32.517Z,9.10
2017-04-22T10:21:30.984Z,9.10
2017-04-22T10:22:29.451Z,9.10
2017-04-22T10:23:27.854Z,9.10
2017-04-22T10:24:26.363Z,9.10
2017-04-22T10:25:24.848Z,9.10
2017-04-22T10:26:25.380Z,9.10
2017-04-22T10:27:23.860Z,9.10
2017-04-22T10:28:22.279Z,9.00
2017-04-22T10:29:20.790Z,9.00
2017-04-22T10:30:20.009Z,9.00
2017-04-22T10:31:18.823Z,9.00
2017-04-22T10:32:17.283Z,9.10
2017-04-22T10:33:16.123Z,9.10
2017-04-22T10:34:14.546Z,9.20
2017-04-22T10:35:12.995Z,9.20
2017-04-22T10:36:11.506Z,9.20
2017-04-22T10:37:10.960Z,9.20
2017-04-22T10:38:09.400Z,9.30
2017-04-22T10:39:08.428Z,9.30
2017-04-22T10:40:06.957Z,9.40
2017-04-22T10:41:05.451Z,9.40
2017-04-22T10:42:03.978Z,9.40
2017-04-22T10:43:03.141Z,9.40
2017-04-22T10:44:01.664Z,9.40
2017-04-22T10:45:00.126Z,9.50
2017-04-22T10:45:58.582Z,9.50
2017-04-22T10:46:57.727Z,9.60
2017-04-22T10:48:55.254Z,9.70
2017-04-22T10:49:53.696Z,9.80
2017-04-22T10:50:52.175Z,9.90
2017-04-22T10:51:50.613Z,10.00
2017-04-22T10:52:49.104Z,10.00
2017-04-22T10:53:48.344Z,10.00
2017-04-22T10:54:46.834Z,10.00
2017-04-22T10:55:45.297Z,10.00
2017-04-22T10:56:43.786Z,10.00
2017-04-22T10:57:42.243Z,10.00
2017-04-22T10:58:40.735Z,9.90
2017-04-22T10:59:40.001Z,9.90
2017-04-22T11:00:38.534Z,9.80
2017-04-22T11:01:37.004Z,9.80
2017-04-22T11:02:35.433Z,9.80
2017-04-22T11:03:33.998Z,9.80
2017-04-22T11:04:32.442Z,9.80
2017-04-22T11:05:30.956Z,9.80
2017-04-22T11:06:30.194Z,9.80
2017-04-22T11:07:28.719Z,9.90
2017-04-22T11:08:27.141Z,9.80
2017-04-22T11:09:26.337Z,9.80
2017-04-22T11:10:24.762Z,9.80
2017-04-22T11:11:23.241Z,9.80
2017-04-22T11:12:21.653Z,9.80
2017-04-22T11:14:25.534Z,9.80
2017-04-22T11:15:24.139Z,9.80
2017-04-22T11:16:22.588Z,9.80
2017-04-22T11:17:21.026Z,9.90
2017-04-22T11:18:19.486Z,10.00
2017-04-22T11:19:17.968Z,10.00
2017-04-22T11:20:16.410Z,10.10
2017-04-22T11:21:15.692Z,10.10
2017-04-22T11:22:14.124Z,10.20
2017-04-22T11:23:12.642Z,10.20
2017-04-22T11:24:12.498Z,10.20
2017-04-22T11:25:10.968Z,10.20
2017-04-22T11:26:09.723Z,10.30
2017-04-22T11:27:08.231Z,10.30
2017-04-22T11:28:06.764Z,10.30
2017-04-22T11:29:05.207Z,10.30
2017-04-22T11:30:04.440Z,10.30
2017-04-22T11:31:02.955Z,10.30
2017-04-22T11:32:01.505Z,10.30
2017-04-22T11:33:00.287Z,10.40
2017-04-22T11:33:58.778Z,10.40
2017-04-22T11:34:57.260Z,10.30
2017-04-22T11:35:56.459Z,10.20
2017-04-22T11:36:55.672Z,10.30
2017-04-22T11:37:54.111Z,10.20
2017-04-22T11:38:53.326Z,10.30
2017-04-22T11:39:52.129Z,10.30
2017-04-22T11:40:50.571Z,10.30
2017-04-22T11:41:48.989Z,10.30
2017-04-22T11:42:47.395Z,10.40
2017-04-22T11:43:45.880Z,10.50
2017-04-22T11:44:44.358Z,10.50
2017-04-22T11:45:42.816Z,10.50
2017-04-22T11:46:41.935Z,10.60
2017-04-22T11:47:40.388Z,10.60
2017-04-22T11:48:38.785Z,10.70
2017-04-22T11:51:46.660Z,10.80
2017-04-22T11:52:45.107Z,11.00
2017-04-22T11:53:44.269Z,11.10
2017-04-22T11:54:43.518Z,11.20
2017-04-22T11:55:42.085Z,11.30
2017-04-22T11:56:40.502Z,11.40
2017-04-22T11:57:38.967Z,11.40
2017-04-22T11:58:38.176Z,11.30
2017-04-22T11:59:37.376Z,11.20
2017-04-22T12:00:36.482Z,11.20
2017-04-22T12:01:35.431Z,11.20
2017-04-22T12:02:33.909Z,11.30
2017-04-22T12:03:32.369Z,11.40
2017-04-22T12:04:31.526Z,11.40
2017-04-22T12:05:30.018Z,11.40
2017-04-22T12:06:29.266Z,11.40
2017-04-22T12:07:28.339Z,11.50
2017-04-22T12:08:26.888Z,11.50
2017-04-22T12:09:29.913Z,11.50
2017-04-22T12:10:28.326Z,11.50
2017-04-22T12:11:27.546Z,11.60
2017-04-22T12:12:26.011Z,11.60
2017-04-22T12:13:24.464Z,11.50
2017-04-22T12:14:22.958Z,11.50
2017-04-22T12:15:21.512Z,11.40
2017-04-22T12:16:19.942Z,11.30
2017-04-22T12:17:18.398Z,11.30
2017-04-22T12:18:16.861Z,11.00
2017-04-22T12:19:15.339Z,11.00
2017-04-22T12:20:13.833Z,11.00
2017-04-22T12:21:12.337Z,11.00
2017-04-22T12:22:10.815Z,11.10
2017-04-22T12:23:09.264Z,11.20
2017-04-22T12:24:08.463Z,11.00
2017-04-22T12:25:06.865Z,11.10
2017-04-22T12:26:05.333Z,11.30
2017-04-22T12:27:03.869Z,11.40
2017-04-22T12:28:03.152Z,11.50
2017-04-22T12:29:02.422Z,11.60
2017-04-22T12:30:00.875Z,11.60
2017-04-22T12:31:00.094Z,11.70
2017-04-22T12:31:59.281Z,11.80
2017-04-22T12:32:58.889Z,11.70
2017-04-22T12:33:58.126Z,11.70
2017-04-22T12:34:56.585Z,11.70
2017-04-22T12:35:55.094Z,11.70
2017-04-22T12:36:53.542Z,11.70
2017-04-22T12:37:51.992Z,11.70
2017-04-22T12:38:50.553Z,11.70
2017-04-22T12:39:49.044Z,11.80
2017-04-22T12:40:47.509Z,11.70
2017-04-22T12:41:45.994Z,11.70
2017-04-22T12:42:44.516Z,11.80
2017-04-22T12:43:43.680Z,11.70
2017-04-22T12:44:42.083Z,11.80
2017-04-22T12:45:40.533Z,11.80
2017-04-22T12:46:39.697Z,11.80
2017-04-22T12:47:38.173Z,11.80
2017-04-22T12:48:36.599Z,11.80
2017-04-22T12:49:35.034Z,11.80
2017-04-22T12:50:34.264Z,11.90
2017-04-22T12:51:32.747Z,12.00
2017-04-22T12:52:31.228Z,12.00
2017-04-22T12:53:29.636Z,12.10
2017-04-22T12:54:28.912Z,12.30
2017-04-22T12:55:27.357Z,12.40
2017-04-22T12:56:25.797Z,12.50
2017-04-22T12:57:24.258Z,12.60
2017-04-22T12:58:22.776Z,12.60
2017-04-22T12:59:21.234Z,12.70
2017-04-22T13:00:19.764Z,12.70
2017-04-22T13:01:18.270Z,12.80
2017-04-22T13:02:17.040Z,12.80
2017-04-22T13:03:15.969Z,12.60
2017-04-22T13:04:14.518Z,12.70
2017-04-22T13:05:12.995Z,12.70
2017-04-22T13:06:12.266Z,12.80
2017-04-22T13:07:10.759Z,12.80
2017-04-22T13:08:09.220Z,12.90